createdAt,value
2022-07-28T00:04:03.059Z,1.62
2022-07-28T00:14:05.544Z,1.60
2022-07-28T00:24:07.934Z,1.60
2022-07-28T00:34:10.389Z,1.70
2022-07-28T00:44:13.031Z,1.50
2022-07-28T00:54:15.691Z,1.77
2022-07-28T01:04:18.788Z,1.40
2022-07-28T01:14:32.766Z,1.63
2022-07-28T01:25:00.737Z,1.90
2022-07-28T01:35:32.349Z,1.67
2022-07-28T01:45:35.402Z,1.40
2022-07-28T01:55:39.527Z,1.33
2022-07-28T02:05:43.844Z,1.70
2022-07-28T02:15:47.076Z,1.30
2022-07-28T02:25:51.675Z,1.23
2022-07-28T02:35:57.583Z,1.53
2022-07-28T02:46:10.718Z,1.60
2022-07-28T02:56:13.295Z,1.20
2022-07-28T03:06:19.905Z,1.20
2022-07-28T03:16:30.588Z,1.50
2022-07-28T03:26:43.680Z,1.50
2022-07-28T03:36:50.373Z,1.30
2022-07-28T03:46:52.650Z,1.10
2022-07-28T03:56:54.930Z,1.40
2022-07-28T04:06:57.172Z,1.30
2022-07-28T04:16:59.395Z,1.43
2022-07-28T04:27:01.740Z,1.10
2022-07-28T04:37:04.435Z,1.00
2022-07-28T04:47:07.443Z,1.40
2022-07-28T04:57:12.726Z,1.00
2022-07-28T05:07:15.348Z,1.20
2022-07-28T05:17:17.510Z,1.10
2022-07-28T05:27:19.748Z,0.97
2022-07-28T05:37:22.304Z,1.20
2022-07-28T05:47:24.503Z,0.90
2022-07-28T05:57:26.777Z,0.70
2022-07-28T06:07:43.036Z,0.80
2022-07-28T06:17:47.440Z,0.75
2022-07-28T06:27:51.529Z,1.00
2022-07-28T06:47:57.401Z,1.00
2022-07-28T06:57:59.679Z,1.02
2022-07-28T07:08:04.009Z,1.40
2022-07-28T07:18:06.612Z,1.08
2022-07-28T07:28:08.859Z,1.50
2022-07-28T07:38:11.882Z,0.90
2022-07-28T07:48:14.285Z,1.30
2022-07-28T07:58:16.758Z,1.58
2022-07-28T08:08:19.167Z,1.40
2022-07-28T08:18:21.717Z,2.07
2022-07-28T08:28:24.604Z,1.80
2022-07-28T08:38:27.637Z,1.90
2022-07-28T08:48:37.446Z,2.37
2022-07-28T08:58:40.336Z,2.50
2022-07-28T09:08:43.749Z,2.28
2022-07-28T09:18:46.057Z,2.30
2022-07-28T09:28:54.313Z,2.00
2022-07-28T09:38:57.775Z,2.40
2022-07-28T09:49:01.508Z,2.33
2022-07-28T09:59:08.758Z,2.55
2022-07-28T10:09:14.921Z,1.98
2022-07-28T10:19:17.649Z,2.70
2022-07-28T10:29:23.688Z,2.47
2022-07-28T10:39:41.189Z,2.17
2022-07-28T10:49:43.912Z,2.20
2022-07-28T11:00:25.847Z,2.60
2022-07-28T11:10:30.970Z,2.33
2022-07-28T11:20:52.992Z,2.40
2022-07-28T11:30:59.409Z,2.00
2022-07-28T11:41:01.888Z,2.45
2022-07-28T11:51:05.490Z,2.20
2022-07-28T12:01:18.157Z,2.33
2022-07-28T12:11:21.552Z,2.10
2022-07-28T12:21:46.618Z,2.12
2022-07-28T12:32:00.045Z,1.90
2022-07-28T12:42:10.465Z,1.87
2022-07-28T12:52:22.033Z,2.27
2022-07-28T13:02:37.926Z,2.10
2022-07-28T13:12:40.650Z,1.73
2022-07-28T13:22:45.991Z,2.05
2022-07-28T13:32:48.816Z,1.92
2022-07-28T13:42:53.358Z,2.20
2022-07-28T13:52:59.651Z,1.80
2022-07-28T14:03:02.861Z,1.73
2022-07-28T14:13:05.846Z,1.65
2022-07-28T14:23:09.224Z,1.60
2022-07-28T14:33:12.200Z,1.73
2022-07-28T14:43:14.824Z,1.90
2022-07-28T14:53:17.520Z,1.70
2022-07-28T15:03:20.399Z,1.77
2022-07-28T15:13:23.955Z,1.87
2022-07-28T15:23:26.933Z,2.20
2022-07-28T15:33:29.419Z,2.08
2022-07-28T15:43:34.983Z,1.90
2022-07-28T15:53:38.150Z,2.12
2022-07-28T16:03:43.755Z,1.80
2022-07-28T16:13:48.015Z,2.10
2022-07-28T16:23:52.493Z,2.42
2022-07-28T16:33:57.762Z,2.25
2022-07-28T16:44:01.533Z,2.10
2022-07-28T16:54:04.208Z,2.25
2022-07-28T17:04:07.823Z,2.20
2022-07-28T17:14:11.907Z,2.10
2022-07-28T17:24:15.202Z,2.25
2022-07-28T17:34:18.509Z,2.20
2022-07-28T17:44:21.914Z,2.10
2022-07-28T17:54:25.340Z,2.15
2022-07-28T18:04:27.715Z,1.87
2022-07-28T18:14:30.787Z,1.95
2022-07-28T18:24:33.203Z,2.25
2022-07-28T18:34:37.170Z,2.17
2022-07-28T18:44:39.721Z,2.15
2022-07-28T18:54:43.852Z,2.50
2022-07-28T19:04:47.757Z,2.17
2022-07-28T19:24:55.487Z,2.40
2022-07-28T19:35:18.909Z,2.37
2022-07-28T19:55:24.571Z,2.40
2022-07-28T20:05:28.195Z,2.75
2022-07-28T20:15:31.175Z,2.23
2022-07-28T20:25:33.632Z,2.10
2022-07-28T20:35:36.965Z,2.37
2022-07-28T20:55:41.467Z,2.72
2022-07-28T21:05:44.395Z,2.67
2022-07-28T21:15:47.080Z,2.53
2022-07-28T21:25:51.253Z,3.00
2022-07-28T21:35:53.976Z,2.40
2022-07-28T21:45:56.515Z,1.90
2022-07-28T21:55:59.208Z,1.97
2022-07-28T22:06:01.977Z,2.13
2022-07-28T22:16:05.374Z,1.93
2022-07-28T22:26:08.210Z,2.30
2022-07-28T22:36:10.656Z,1.90
2022-07-28T22:46:13.242Z,2.00
2022-07-28T23:06:36.955Z,1.67
2022-07-28T23:16:39.371Z,1.90
2022-07-28T23:26:41.858Z,1.70
2022-07-28T23:36:45.371Z,1.35
2022-07-28T23:46:47.872Z,1.60
